Latest Weather Observations for Bradshaw

IDD60801

Issued at 6:33 pm CST Tuesday 3 March 2015 (issued every 30 minutes, with the page automatically refreshed every 10 minutes)

About weather observations | Map of weather stations | Latest weather observations for NT | Other Formats
Station Details ID: 014954 Name: BRADSHAW Lat: -14.94 Lon: 130.81 Height: 75.0 m
Data from the previous 72 hours. | See also: Recent months at Bradshaw
Date/Time
CST
Temp
°C
App
Temp
°C
Dew
Point
Rel
Hum
%
Delta-T
°C
Wind Press
QNH
hPa
Press
MSL
hPa
Rain
since 9 am
mm
Dir
 
Spd
km/h
Gust
km/h
Spd
kts
Gust
kts
03/06:30pm 33.6 35.3 22.4 52 7.7 E 17 22 9 12 1005.0 - 0.2
03/06:00pm 34.2 35.8 22.9 51 7.8 E 19 28 10 15 1004.9 1004.4 0.2
03/05:30pm 35.0 37.1 23.7 52 7.9 E 19 26 10 14 1004.6 - 0.2
03/05:00pm 35.1 37.4 24.1 53 7.8 NE 19 26 10 14 1004.6 - 0.2
03/04:30pm 35.5 38.4 25.1 55 7.4 E 19 28 10 15 1004.8 - 0.2
03/04:00pm 34.9 37.6 24.8 55 7.2 ENE 19 28 10 15 1005.1 - 0.2
03/03:30pm 34.6 37.3 24.8 56 7.0 ENE 19 30 10 16 1005.4 - 0.2
03/03:00pm 35.5 39.0 26.0 58 6.9 NNE 19 28 10 15 1005.4 1004.9 0.2
03/02:30pm 35.8 39.3 26.8 59 6.6 NNE 22 32 12 17 1005.7 - 0.2
03/02:00pm 34.8 38.8 26.2 61 6.2 NE 17 30 9 16 1005.9 - 0.2
03/01:30pm 35.1 38.3 27.0 63 5.9 ENE 24 33 13 18 1006.4 - 0.2
03/01:00pm 34.5 38.8 27.2 66 5.3 E 19 30 10 16 1006.6 - 0.2
03/12:30pm 34.0 38.1 27.2 67 5.0 ENE 20 33 11 18 1007.1 - 0.2
03/12:00pm 33.5 36.5 27.3 70 4.5 ENE 26 37 14 20 1007.5 1006.9 0.2
03/11:30am 33.5 38.7 28.4 74 3.8 ENE 19 32 10 17 1007.5 - 0.2
03/11:00am 32.5 37.6 28.6 80 2.9 ENE 20 28 11 15 1007.9 - 0.2
03/10:30am 31.3 36.7 28.7 86 1.9 ENE 19 26 10 14 1008.1 - 0.0
03/10:00am 29.1 35.0 27.3 90 1.3 NE 11 15 6 8 1008.1 - 0.0
03/09:30am 28.1 34.8 26.5 91 1.1 NNE 4 7 2 4 1008.5 - 0.0
03/09:00am 27.5 34.7 26.1 92 1.0 CALM 0 0 0 0 1008.3 1007.7 8.2
03/08:30am 26.5 33.1 25.3 93 0.8 CALM 0 0 0 0 1008.0 - 8.2
03/08:00am 25.8 31.9 24.4 92 1.0 CALM 0 0 0 0 1007.6 - 8.2
03/07:30am 25.4 31.2 24.0 92 1.0 CALM 0 0 0 0 1007.2 - 8.2
03/07:00am 24.8 30.3 23.4 92 1.0 CALM 0 0 0 0 1006.7 - 8.2
03/06:30am 24.7 30.1 23.3 92 1.0 CALM 0 0 0 0 1006.2 - 8.2
03/06:00am 24.8 29.8 23.2 91 1.1 WNW 2 7 1 4 1005.8 1005.3 8.2
03/05:30am 25.1 29.5 23.5 91 1.1 NE 6 7 3 4 1005.5 - 8.2
03/05:00am 25.2 30.4 23.6 91 1.1 ENE 2 7 1 4 1005.2 - 8.2
03/04:30am 25.3 31.0 23.7 91 1.1 CALM 0 0 0 0 1005.2 - 8.2
03/04:00am 25.3 31.0 23.7 91 1.1 CALM 0 0 0 0 1005.2 - 8.2
03/03:30am 25.4 31.1 23.8 91 1.1 CALM 0 0 0 0 1005.4 - 8.2
03/03:00am 25.4 30.6 23.6 90 1.2 NE 2 6 1 3 1005.6 1005.1 8.2
03/02:30am 25.4 31.0 23.6 90 1.2 CALM 0 0 0 0 1005.9 - 8.2
03/02:00am 25.3 30.9 23.5 90 1.2 CALM 0 0 0 0 1005.9 - 8.2
03/01:30am 25.3 30.8 23.4 89 1.3 CALM 0 0 0 0 1005.8 - 8.2
03/01:00am 25.3 30.8 23.4 89 1.3 CALM 0 0 0 0 1006.2 - 8.2
03/12:30am 25.5 30.7 23.6 89 1.3 NE 2 6 1 3 1007.0 - 8.2
03/12:00am 25.5 29.7 23.4 88 1.4 ESE 7 11 4 6 1007.3 1006.7 8.2
 
Date/Time
CST
Temp
°C
App
Temp
°C
Dew
Point
Rel
Hum
%
Delta-T
°C
Wind Press
QNH
hPa
Press
MSL
hPa
Rain
since 9 am
mm
Dir
 
Spd
km/h
Gust
km/h
Spd
kts
Gust
kts
02/11:30pm 25.5 31.0 23.4 88 1.4 CALM 0 0 0 0 - - 8.2
02/11:00pm 25.3 29.4 23.0 87 1.6 NW 6 9 3 5 1007.3 - 8.2
02/10:30pm 25.4 29.5 22.9 86 1.7 WSW 6 9 3 5 1007.6 - 7.4
02/10:00pm 25.6 26.5 22.7 84 2.0 NNE 22 35 12 19 1008.1 - 4.2
02/09:30pm 27.0 32.5 24.1 84 2.0 WNW 2 7 1 4 1006.5 - 2.0
02/09:00pm 27.0 32.0 23.9 83 2.1 NW 4 6 2 3 1005.2 1004.7 2.0
02/08:30pm 27.0 31.9 23.7 82 2.3 NW 4 7 2 4 1005.3 - 2.0
02/08:00pm 27.1 32.5 23.3 80 2.6 CALM 0 0 0 0 1004.7 - 2.0
02/07:30pm 27.2 32.2 23.2 79 2.7 WNW 2 6 1 3 1004.5 - 2.0
02/07:00pm 27.6 32.5 23.0 76 3.1 NW 2 7 1 4 1004.2 - 2.0
02/06:30pm 28.0 32.0 23.1 74 3.4 S 7 9 4 5 1003.9 - 1.8
02/06:00pm 28.8 33.0 23.5 73 3.7 SW 7 11 4 6 1003.7 1003.2 1.8
02/05:30pm 29.1 32.6 24.2 75 3.4 SSW 13 20 7 11 1003.6 - 1.8
02/05:00pm 29.2 33.9 24.3 75 3.4 S 7 13 4 7 1003.5 - 1.8
02/04:30pm 29.0 33.7 24.3 76 3.3 SW 7 13 4 7 1003.5 - 1.8
02/04:00pm 28.2 31.8 23.8 77 3.0 SSW 11 17 6 9 1003.8 - 1.8
02/03:30pm 28.0 32.4 23.8 78 2.9 W 7 11 4 6 1003.7 - 1.8
02/03:00pm 27.6 30.6 23.4 78 2.9 SSW 13 24 7 13 1004.6 1004.1 1.8
02/02:30pm 28.0 31.8 23.4 76 3.2 W 9 15 5 8 1004.5 - 1.4
02/02:00pm 26.6 25.8 20.9 71 3.8 SSE 26 35 14 19 1005.0 - 1.2
02/01:58pm 27.5 27.6 21.8 71 3.8 SSE 24 35 13 19 1005.1 - 0.4
02/01:30pm 33.5 39.9 27.5 71 4.4 WSW 9 13 5 7 1005.3 - 0.0
02/01:00pm 32.2 37.8 26.3 71 4.2 S 9 15 5 8 1005.8 - 0.0
02/12:30pm 33.3 39.0 27.6 72 4.2 S 13 19 7 10 1006.5 - 0.0
02/12:00pm 33.4 39.0 27.9 73 4.0 SSW 15 22 8 12 1006.9 1006.3 0.0
02/11:30am 32.8 39.2 28.0 76 3.5 S 11 19 6 10 1007.5 - 0.0
02/11:00am 32.0 38.2 27.7 78 3.1 S 11 15 6 8 1007.7 - 0.0
02/10:30am 31.8 37.7 27.9 80 2.9 SSW 13 19 7 10 1007.8 - 0.0
02/10:00am 31.3 37.6 27.9 82 2.5 S 11 17 6 9 1007.8 - 0.0
02/09:30am 30.7 38.6 27.7 84 2.2 S 2 11 1 6 1007.8 - 0.0
02/09:00am 29.7 36.4 27.1 86 1.9 NNW 6 7 3 4 1008.0 1007.4 2.4
02/08:30am 28.9 35.3 26.7 88 1.6 N 6 9 3 5 1007.6 - 2.4
02/08:00am 27.5 33.1 25.5 89 1.4 N 6 7 3 4 1007.4 - 2.4
02/07:30am 26.6 31.7 24.6 89 1.4 N 6 7 3 4 1007.3 - 2.4
02/07:00am 25.9 31.6 23.8 88 1.4 CALM 0 0 0 0 1007.1 - 2.4
02/06:30am 25.7 31.3 23.6 88 1.4 CALM 0 0 0 0 1006.6 - 2.4
02/06:00am 25.8 31.4 23.5 87 1.6 CALM 0 0 0 0 1006.0 1005.5 2.4
02/05:30am 25.8 31.4 23.5 87 1.6 CALM 0 0 0 0 1005.9 - 2.4
02/05:00am 25.9 31.4 23.4 86 1.7 CALM 0 0 0 0 1006.1 - 2.4
02/04:30am 26.0 31.6 23.5 86 1.7 CALM 0 0 0 0 1005.9 - 2.4
02/04:00am 26.0 30.3 23.3 85 1.8 N 6 9 3 5 1005.8 - 2.4
02/03:30am 26.0 30.6 23.1 84 2.0 N 4 7 2 4 1005.8 - 2.4
02/03:00am 25.9 29.9 22.8 83 2.1 NNE 6 7 3 4 1005.9 1005.4 2.2
02/02:30am 26.1 28.8 22.8 82 2.2 ESE 13 32 7 17 1006.4 - 2.2
02/02:18am 25.7 26.0 22.2 81 2.4 ESE 24 35 13 19 1006.9 - 2.2
02/02:00am 25.6 26.7 21.9 80 2.5 WNW 19 24 10 13 1004.8 - 2.0
02/01:51am 26.0 28.7 22.1 79 2.6 NNE 11 20 6 11 1006.0 - 1.6
02/01:30am 27.4 31.3 23.0 77 3.0 N 7 13 4 7 1008.0 - 0.6
02/01:00am 27.8 32.1 23.6 78 2.9 W 7 11 4 6 1007.8 - 0.6
02/12:30am 27.8 32.4 23.8 79 2.8 N 6 9 3 5 1007.7 - 0.6
02/12:00am 27.9 31.7 24.1 80 2.6 N 11 15 6 8 1007.6 1007.0 0.6
 
Date/Time
CST
Temp
°C
App
Temp
°C
Dew
Point
Rel
Hum
%
Delta-T
°C
Wind Press
QNH
hPa
Press
MSL
hPa
Rain
since 9 am
mm
Dir
 
Spd
km/h
Gust
km/h
Spd
kts
Gust
kts
01/11:30pm 27.9 31.7 24.1 80 2.6 NW 11 19 6 10 1007.2 - 0.6
01/11:00pm 27.9 32.7 24.1 80 2.6 NNW 6 9 3 5 1007.2 - 0.6
01/10:30pm 27.6 31.9 23.6 79 2.8 NNW 7 13 4 7 1007.4 - 0.6
01/10:00pm 26.5 29.7 22.3 78 2.8 NW 9 13 5 7 1007.2 - 0.6
01/09:30pm 26.2 29.4 21.6 76 3.1 N 7 13 4 7 1007.2 - 0.4
01/09:00pm 26.0 27.7 21.0 74 3.3 ENE 13 15 7 8 1007.1 1006.5 0.4
01/08:30pm 27.6 31.2 22.1 72 3.7 ENE 6 9 3 5 1006.5 - 0.4
01/08:00pm 28.7 32.3 22.4 68 4.3 ESE 7 11 4 6 1006.0 - 0.4
01/07:30pm 30.9 34.4 23.5 64 5.1 NNW 11 17 6 9 1005.3 - 0.0
01/07:00pm 31.6 34.4 23.7 63 5.5 NNW 15 20 8 11 1004.2 - 0.0
01/06:30pm 32.1 33.7 22.8 58 6.4 NW 19 26 10 14 1003.9 - 0.0
01/06:00pm 35.5 40.9 25.1 55 7.4 WSW 6 7 3 4 1003.6 1003.1 0.0
01/05:30pm 35.8 40.7 25.3 54 7.5 WSW 9 15 5 8 1003.3 - 0.0
01/05:00pm 36.6 42.2 25.8 54 7.8 SW 7 15 4 8 1003.4 - 0.0
01/04:30pm 36.9 42.9 26.4 55 7.6 WSW 7 15 4 8 1003.5 - 0.0
01/04:00pm 36.1 41.4 25.9 55 7.3 WSW 9 15 5 8 1003.4 - 0.0
01/03:30pm 36.5 42.9 26.6 57 7.2 W 6 13 3 7 1004.1 - 0.0
01/03:00pm 35.9 41.5 26.3 57 7.0 SSW 9 15 5 8 1004.2 1003.7 0.0
01/02:30pm 35.5 41.2 26.5 59 6.5 WSW 9 19 5 10 1004.7 - 0.0
01/02:00pm 35.1 40.4 26.4 60 6.3 S 11 17 6 9 1005.6 - 0.0
01/01:30pm 34.8 39.9 26.7 63 5.9 WSW 13 20 7 11 1006.2 - 0.0
01/01:00pm 34.4 39.8 26.6 64 5.6 WSW 11 20 6 11 1006.9 - 0.0
01/12:30pm 34.1 39.5 26.6 65 5.4 WSW 11 20 6 11 1007.6 - 0.0
01/12:00pm 33.6 39.2 26.9 68 4.9 SW 11 17 6 9 1007.9 1007.3 0.0
01/11:30am 33.2 38.7 26.7 68 4.7 SW 11 17 6 9 1008.0 - 0.0
01/11:00am 32.7 38.4 27.0 72 4.1 SW 11 20 6 11 1008.5 - 0.0
01/10:30am 32.3 39.3 27.5 76 3.5 WSW 6 15 3 8 1008.5 - 0.0
01/10:00am 31.0 37.4 26.9 79 3.0 SSW 7 15 4 8 1008.7 - 0.0
01/09:30am 29.7 35.7 26.1 81 2.6 W 6 9 3 5 1008.5 - 0.0
01/09:00am 28.9 35.3 26.1 85 2.0 NW 4 9 2 5 1008.2 1007.6 0.2
01/08:30am 27.9 33.3 25.5 87 1.7 NW 7 9 4 5 1007.9 - 0.2
01/08:00am 26.9 33.3 24.9 89 1.4 CALM 0 0 0 0 1007.5 - 0.2
01/07:30am 25.6 31.2 23.6 89 1.4 CALM 0 0 0 0 1007.1 - 0.2
01/07:00am 24.7 29.9 22.8 89 1.3 CALM 0 0 0 0 1007.1 - 0.2
01/06:30am 24.6 28.8 22.5 88 1.4 N 4 6 2 3 1007.1 - 0.2
01/06:00am 24.6 28.8 22.5 88 1.4 NNE 4 6 2 3 1006.6 1006.1 0.2
01/05:30am 24.8 29.1 22.7 88 1.4 ENE 4 6 2 3 1006.5 - 0.2
01/05:00am 24.8 29.8 22.5 87 1.5 CALM 0 0 0 0 1006.3 - 0.2
01/04:30am 24.7 28.9 22.4 87 1.5 NE 4 7 2 4 1006.5 - 0.2
01/04:00am 24.8 28.4 22.3 86 1.7 E 7 9 4 5 1006.3 - 0.2
01/03:30am 25.1 29.0 22.6 86 1.7 W 6 9 3 5 1005.3 - 0.2
01/03:00am 25.2 28.5 22.5 85 1.8 W 9 15 5 8 1006.2 1005.7 0.2
01/02:30am 25.4 29.3 22.5 84 2.0 NW 6 6 3 3 1007.0 - 0.2
01/02:00am 25.5 30.4 22.4 83 2.1 CALM 0 0 0 0 1007.5 - 0.2
01/01:30am 25.7 29.5 22.4 82 2.2 SW 6 9 3 5 1008.0 - 0.2
01/01:00am 26.3 31.1 22.8 81 2.4 E 2 7 1 4 1008.0 - 0.2
01/12:30am 26.7 30.8 23.0 80 2.5 N 6 9 3 5 1008.2 - 0.2
01/12:00am 26.8 30.5 23.3 81 2.4 N 9 13 5 7 1007.8 1007.2 0.2
 
Date/Time
CST
Temp
°C
App
Temp
°C
Dew
Point
Rel
Hum
%
Delta-T
°C
Wind Press
QNH
hPa
Press
MSL
hPa
Rain
since 9 am
mm
Dir
 
Spd
km/h
Gust
km/h
Spd
kts
Gust
kts
28/11:30pm 26.4 30.3 22.9 81 2.4 N 7 11 4 6 1007.6 - 0.2
28/11:00pm 25.8 29.4 22.3 81 2.4 NNE 7 7 4 4 1008.3 - 0.2
28/10:30pm 25.8 29.3 22.1 80 2.5 ENE 7 9 4 5 1008.8 - 0.2
28/10:00pm 25.9 30.5 21.8 78 2.7 CALM 0 0 0 0 1008.0 - 0.2
28/09:30pm 26.0 30.4 21.4 76 3.1 CALM 0 0 0 0 1007.4 - 0.2
28/09:00pm 26.1 29.2 21.1 74 3.3 NE 6 7 3 4 1007.6 1007.0 0.2
28/08:30pm 26.5 29.3 20.8 71 3.8 SW 7 13 4 7 1007.5 - 0.2
28/08:00pm 26.9 28.0 20.5 68 4.2 SW 15 24 8 13 1006.6 - 0.2
28/07:30pm 29.5 31.9 22.2 65 5.0 SSW 13 19 7 10 1005.2 - 0.2
28/07:00pm 31.2 35.1 23.6 64 5.3 S 9 15 5 8 1005.1 - 0.2

Other Formats:

Comma delimited format used in spreadsheet applications
http://www.bom.gov.au/fwo/IDD60801/IDD60801.94130.axf

JavaScript Object Notation format (JSON) in row-major order
http://www.bom.gov.au/fwo/IDD60801/IDD60801.94130.json